Time;durP1;ratioP1;P1;durP2;ratioP2;P2;SDS_P1;SDS_P2;PMS_P1;PMS_P2;Temp;Humidity;BMP_temperature;BMP_pressure;BME280_temperature;BME280_humidity;BME280_pressure;Samples;Min_cycle;Max_cycle;Signal;HPM_P1;HPM_P2
2022/04/27 00:00:59;;;;;;;10.15;5.03;;;;;;;5.84;100.00;101199.88;5992451;29;20086;-89
2022/04/27 00:04:02;;;;;;;8.77;5.05;;;;;;;5.83;100.00;101206.72;6012608;29;20077;-89
2022/04/27 00:07:06;;;;;;;6.68;4.20;;;;;;;5.89;100.00;101197.91;6022076;29;20423;-89
2022/04/27 00:10:08;;;;;;;7.97;5.03;;;;;;;5.91;100.00;101205.53;6013687;29;20045;-89
2022/04/27 00:13:15;;;;;;;5.88;4.80;;;;;;;5.78;100.00;101200.97;6018996;29;20174;-89
2022/04/27 00:16:17;;;;;;;7.20;4.55;;;;;;;5.85;100.00;101193.81;6012164;29;20045;-89
2022/04/27 00:19:18;;;;;;;9.82;5.35;;;;;;;5.83;100.00;101193.06;6011150;29;20056;-89
2022/04/27 00:22:20;;;;;;;5.82;4.22;;;;;;;5.67;100.00;101192.16;6016738;29;20092;-89
2022/04/27 00:25:23;;;;;;;8.73;4.30;;;;;;;5.51;100.00;101197.97;6006293;29;20563;-89
2022/04/27 00:28:25;;;;;;;8.75;4.78;;;;;;;5.78;100.00;101198.41;5997475;29;20496;-89
2022/04/27 00:31:28;;;;;;;5.90;4.65;;;;;;;5.68;100.00;101204.06;5998391;29;20053;-89
2022/04/27 00:34:30;;;;;;;7.05;4.38;;;;;;;5.62;100.00;101197.50;6011114;29;20057;-89
2022/04/27 00:37:32;;;;;;;6.32;4.80;;;;;;;5.49;100.00;101194.69;6016402;29;20056;-89
2022/04/27 00:40:34;;;;;;;6.28;4.55;;;;;;;5.44;100.00;101195.78;5981925;29;20056;-90
2022/04/27 00:43:39;;;;;;;6.72;5.05;;;;;;;5.38;100.00;101202.84;6010600;29;20058;-89
2022/04/27 00:46:41;;;;;;;8.65;4.30;;;;;;;5.40;100.00;101195.94;6011173;29;20060;-89
2022/04/27 00:49:47;;;;;;;6.10;4.53;;;;;;;5.56;100.00;101210.59;5987435;29;20080;-88
2022/04/27 00:52:49;;;;;;;8.57;4.68;;;;;;;5.49;100.00;101204.09;6013893;29;20488;-89
2022/04/27 00:55:51;;;;;;;7.55;4.97;;;;;;;5.44;100.00;101216.31;6013802;29;20045;-89
2022/04/27 00:58:53;;;;;;;6.63;4.55;;;;;;;5.37;100.00;101210.66;6003795;29;20056;-89
2022/04/27 01:01:55;;;;;;;8.07;4.90;;;;;;;5.24;100.00;101206.97;6012018;29;20049;-89
2022/04/27 01:04:57;;;;;;;6.20;4.93;;;;;;;5.18;100.00;101205.53;6007165;29;20064;-89
2022/04/27 01:08:00;;;;;;;8.23;5.40;;;;;;;5.13;100.00;101204.91;6010268;29;20058;-89
2022/04/27 01:11:03;;;;;;;7.00;5.03;;;;;;;5.10;100.00;101207.59;5997310;29;20056;-89
2022/04/27 01:14:10;;;;;;;11.93;5.22;;;;;;;5.22;100.00;101209.63;5995845;29;20057;-88
2022/04/27 01:17:11;;;;;;;8.43;5.10;;;;;;;5.14;100.00;101217.66;6017260;29;20053;-89
2022/04/27 01:20:13;;;;;;;8.35;4.88;;;;;;;5.07;100.00;101216.28;6016269;29;20057;-89
2022/04/27 01:23:15;;;;;;;10.55;4.90;;;;;;;5.12;100.00;101213.50;6017907;29;20045;-89
2022/04/27 01:26:18;;;;;;;9.70;5.13;;;;;;;5.02;100.00;101210.53;5995113;29;20052;-89
2022/04/27 01:29:25;;;;;;;11.95;5.57;;;;;;;4.92;100.00;101217.78;5996964;29;20048;-89
2022/04/27 01:32:27;;;;;;;9.63;5.60;;;;;;;4.90;100.00;101224.72;6014998;29;20136;-89
2022/04/27 01:35:28;;;;;;;11.05;5.57;;;;;;;5.04;100.00;101230.97;6011229;29;20151;-89
2022/04/27 01:38:38;;;;;;;7.10;5.50;;;;;;;5.01;100.00;101231.94;6015528;29;20048;-89
2022/04/27 01:41:40;;;;;;;7.90;5.50;;;;;;;5.04;100.00;101231.78;6003459;29;20038;-89
2022/04/27 01:44:42;;;;;;;10.20;6.13;;;;;;;4.89;100.00;101235.84;6015252;29;20559;-89
2022/04/27 01:47:44;;;;;;;9.52;6.30;;;;;;;4.99;100.00;101245.72;5996568;29;20065;-89
2022/04/27 01:50:46;;;;;;;12.57;6.47;;;;;;;4.81;100.00;101239.66;5999366;29;20053;-89
2022/04/27 01:57:09;;;;;;;9.82;6.18;;;;;;;4.90;100.00;101246.97;6012042;29;20571;-89
2022/04/27 02:00:11;;;;;;;11.90;7.05;;;;;;;4.86;100.00;101251.38;6002380;29;20091;-89
2022/04/27 02:03:21;;;;;;;9.35;7.18;;;;;;;4.88;100.00;101254.72;6004144;29;20057;-89
2022/04/27 02:06:24;;;;;;;13.27;7.03;;;;;;;4.81;100.00;101265.31;6016959;29;20046;-89
2022/04/27 02:09:26;;;;;;;10.32;7.10;;;;;;;4.71;100.00;101265.72;6005255;29;20058;-89
2022/04/27 02:12:28;;;;;;;12.63;6.93;;;;;;;4.67;100.00;101268.47;5984126;29;20133;-89
2022/04/27 02:15:43;;;;;;;11.98;6.38;;;;;;;4.94;100.00;101264.75;6001770;29;20066;-89
2022/04/27 02:18:55;;;;;;;14.05;6.78;;;;;;;4.79;100.00;101269.69;6004774;29;20050;-89
2022/04/27 02:21:58;;;;;;;12.85;7.57;;;;;;;4.68;100.00;101275.28;6017210;29;20600;-89
2022/04/27 02:25:01;;;;;;;12.75;7.28;;;;;;;4.75;100.00;101272.38;5996567;29;20056;-89
2022/04/27 02:28:05;;;;;;;13.55;6.95;;;;;;;4.64;100.00;101277.13;5993239;29;20574;-89
2022/04/27 02:31:08;;;;;;;13.40;6.93;;;;;;;4.50;100.00;101275.16;5999207;29;20526;-89
2022/04/27 02:34:10;;;;;;;12.80;6.75;;;;;;;4.43;100.00;101278.03;6020641;29;20045;-89
2022/04/27 02:37:14;;;;;;;15.15;7.68;;;;;;;4.50;100.00;101272.59;6009686;29;20045;-89
2022/04/27 02:40:18;;;;;;;11.82;7.32;;;;;;;4.38;100.00;101280.78;5999576;29;20061;-89
2022/04/27 02:43:21;;;;;;;13.38;6.95;;;;;;;4.33;100.00;101282.69;5984182;29;20124;-89
2022/04/27 02:46:24;;;;;;;12.45;7.40;;;;;;;4.39;100.00;101287.56;6002190;29;20049;-89
2022/04/27 02:52:49;;;;;;;13.50;7.15;;;;;;;4.40;100.00;101286.69;5999733;29;20064;-89
2022/04/27 02:55:58;;;;;;;12.68;6.95;;;;;;;4.25;100.00;101283.00;5998568;29;20518;-89
2022/04/27 02:59:00;;;;;;;11.48;6.97;;;;;;;4.25;100.00;101287.31;5984814;29;20049;-89
2022/04/27 03:02:03;;;;;;;16.92;7.82;;;;;;;4.29;100.00;101296.53;5997875;29;20049;-89
2022/04/27 03:05:05;;;;;;;13.13;7.28;;;;;;;4.45;100.00;101291.63;5997076;29;20575;-89
2022/04/27 03:08:08;;;;;;;11.68;7.13;;;;;;;4.30;100.00;101287.94;6009688;29;20388;-89
2022/04/27 03:11:19;;;;;;;12.63;7.15;;;;;;;4.35;100.00;101295.44;6000830;29;20069;-89
2022/04/27 03:14:40;;;;;;;11.45;6.97;;;;;;;4.25;100.00;101289.88;6014720;29;20053;-89
2022/04/27 03:17:43;;;;;;;12.07;7.07;;;;;;;4.32;100.00;101301.50;6006350;29;20048;-89
2022/04/27 03:20:47;;;;;;;15.90;8.02;;;;;;;4.40;100.00;101302.06;5989200;29;20060;-89
2022/04/27 03:23:49;;;;;;;11.05;8.05;;;;;;;4.49;100.00;101298.28;6016178;29;20054;-89
2022/04/27 03:26:52;;;;;;;12.52;7.03;;;;;;;4.50;100.00;101303.34;5995829;29;20537;-89
2022/04/27 03:29:56;;;;;;;11.45;7.53;;;;;;;4.54;100.00;101304.88;6001524;29;20045;-89
2022/04/27 03:32:59;;;;;;;12.02;7.05;;;;;;;4.44;100.00;101300.19;5977576;29;20397;-89
2022/04/27 03:36:01;;;;;;;12.48;8.27;;;;;;;4.24;100.00;101319.75;5992021;29;20048;-89
2022/04/27 03:39:03;;;;;;;13.90;8.50;;;;;;;4.19;100.00;101314.00;6003513;29;20050;-89
2022/04/27 03:42:05;;;;;;;12.20;7.50;;;;;;;4.16;100.00;101321.81;5996866;29;20073;-89
2022/04/27 03:45:08;;;;;;;12.20;8.00;;;;;;;4.29;100.00;101328.09;5989423;29;20516;-89
2022/04/27 03:48:16;;;;;;;17.90;8.13;;;;;;;4.10;100.00;101316.94;5995363;29;20076;-89
2022/04/27 03:51:17;;;;;;;15.45;8.07;;;;;;;4.05;100.00;101324.78;5999376;29;20076;-89
2022/04/27 03:54:22;;;;;;;17.17;8.38;;;;;;;4.05;100.00;101334.19;5984515;29;20751;-89
2022/04/27 03:57:26;;;;;;;13.15;8.27;;;;;;;4.10;100.00;101337.44;6018234;29;20049;-89
2022/04/27 04:00:29;;;;;;;21.30;8.10;;;;;;;4.04;100.00;101342.78;6004102;29;20062;-89
2022/04/27 04:03:40;;;;;;;14.55;8.65;;;;;;;4.06;100.00;101346.94;5998017;29;20058;-88
2022/04/27 04:06:42;;;;;;;13.30;8.20;;;;;;;4.09;100.00;101351.94;6010603;29;20045;-89
2022/04/27 04:09:46;;;;;;;12.50;8.27;;;;;;;4.07;100.00;101347.78;5998742;29;20054;-88
2022/04/27 04:12:48;;;;;;;18.08;10.38;;;;;;;4.09;100.00;101351.94;6010462;29;20045;-89
2022/04/27 04:16:09;;;;;;;15.80;8.23;;;;;;;4.24;100.00;101345.38;6000115;29;20571;-89
2022/04/27 04:19:28;;;;;;;14.07;8.70;;;;;;;4.19;100.00;101364.41;6001956;29;20529;-89
2022/04/27 04:22:49;;;;;;;13.02;8.10;;;;;;;4.19;100.00;101365.22;5996481;29;20432;-89
2022/04/27 04:29:33;;;;;;;15.95;7.65;;;;;;;4.28;100.00;101371.75;5991228;29;20076;-89
2022/04/27 04:32:41;;;;;;;14.98;8.80;;;;;;;4.34;100.00;101370.66;5997936;29;20479;-89
2022/04/27 04:35:57;;;;;;;12.98;8.10;;;;;;;4.38;100.00;101370.47;6012112;29;20041;-89
2022/04/27 04:39:03;;;;;;;14.98;8.00;;;;;;;4.51;100.00;101370.81;5996456;29;20053;-88
2022/04/27 04:42:13;;;;;;;15.40;8.40;;;;;;;4.54;100.00;101374.09;5992331;29;20046;-89
2022/04/27 04:45:16;;;;;;;20.00;9.43;;;;;;;4.51;100.00;101387.03;5997511;29;20121;-89
2022/04/27 04:48:51;;;;;;;19.13;8.27;;;;;;;4.52;100.00;101386.16;5971546;29;20058;-88
2022/04/27 04:52:10;;;;;;;13.32;8.50;;;;;;;4.63;100.00;101390.03;5966233;29;20050;-88
2022/04/27 04:55:47;;;;;;;15.98;8.55;;;;;;;4.59;100.00;101399.56;5967837;29;20061;-89
2022/04/27 04:59:07;;;;;;;15.63;9.60;;;;;;;4.64;100.00;101401.94;5973709;29;20070;-89
2022/04/27 05:02:36;;;;;;;13.65;8.68;;;;;;;4.66;100.00;101413.78;5971878;29;20062;-88
2022/04/27 05:06:11;;;;;;;16.17;8.45;;;;;;;4.73;100.00;101411.84;5970243;29;20102;-88
2022/04/27 05:09:36;;;;;;;11.27;8.02;;;;;;;4.83;100.00;101415.69;5961531;29;20074;-89
2022/04/27 05:13:03;;;;;;;13.40;8.63;;;;;;;4.78;100.00;101416.78;5968005;29;20085;-88
2022/04/27 05:16:25;;;;;;;16.48;8.23;;;;;;;4.82;100.00;101421.72;5962386;29;20054;-88
2022/04/27 05:19:45;;;;;;;14.85;8.90;;;;;;;4.88;100.00;101439.41;5967084;29;20050;-88
2022/04/27 05:23:08;;;;;;;15.93;8.70;;;;;;;5.00;100.00;101442.41;5965525;29;20065;-88
2022/04/27 05:26:35;;;;;;;15.45;9.60;;;;;;;4.97;100.00;101435.66;5997732;29;20058;-88
2022/04/27 05:33:26;;;;;;;16.77;9.35;;;;;;;5.10;100.00;101449.66;5994656;29;20061;-88
2022/04/27 05:36:35;;;;;;;14.98;9.07;;;;;;;5.12;100.00;101441.91;6015801;29;20037;-88
2022/04/27 05:39:49;;;;;;;12.70;8.40;;;;;;;5.15;100.00;101449.47;6015831;29;20735;-88
2022/04/27 05:43:29;;;;;;;13.48;8.27;;;;;;;5.25;100.00;101445.63;5967733;29;20130;-88
2022/04/27 05:46:42;;;;;;;13.55;8.73;;;;;;;5.30;100.00;101450.56;5975324;29;20527;-88
2022/04/27 05:50:04;;;;;;;13.50;7.95;;;;;;;5.42;100.00;101454.34;5971819;29;20535;-88
2022/04/27 05:53:32;;;;;;;14.20;8.73;;;;;;;5.55;100.00;101455.47;5952216;29;20083;-89
2022/04/27 05:56:52;;;;;;;18.67;8.00;;;;;;;5.80;100.00;101463.78;5972437;29;20090;-89
2022/04/27 06:00:24;;;;;;;17.70;8.20;;;;;;;6.04;100.00;101464.47;5963337;29;20065;-88
2022/04/27 06:03:44;;;;;;;14.45;7.35;;;;;;;6.18;100.00;101461.25;5949827;29;20722;-89
2022/04/27 06:06:46;;;;;;;13.55;7.82;;;;;;;6.01;100.00;101466.31;5962376;29;20066;-88
2022/04/27 06:09:51;;;;;;;11.15;7.88;;;;;;;5.99;100.00;101470.72;5948974;29;20051;-88
2022/04/27 06:13:08;;;;;;;12.18;7.15;;;;;;;6.09;100.00;101471.13;5970087;29;20054;-85
2022/04/27 06:16:19;;;;;;;12.45;7.93;;;;;;;6.09;100.00;101477.13;5988145;29;20374;-86
2022/04/27 06:19:34;;;;;;;14.40;8.10;;;;;;;6.25;100.00;101479.81;5997576;29;20178;-86
2022/04/27 06:22:38;;;;;;;14.07;7.85;;;;;;;6.44;100.00;101488.38;6015538;29;20057;-85
2022/04/27 06:25:41;;;;;;;15.27;7.97;;;;;;;6.36;100.00;101484.47;5996352;29;20053;-86
2022/04/27 06:28:46;;;;;;;14.90;8.50;;;;;;;6.54;100.00;101490.53;5999504;29;20053;-87
2022/04/27 06:31:48;;;;;;;15.18;8.52;;;;;;;6.52;100.00;101492.31;6014933;29;20050;-86
2022/04/27 06:34:50;;;;;;;19.63;8.68;;;;;;;6.58;100.00;101495.41;6017256;29;20049;-86
2022/04/27 06:37:52;;;;;;;11.60;8.25;;;;;;;6.60;100.00;101492.78;6003025;29;20049;-86
2022/04/27 06:40:54;;;;;;;16.38;8.98;;;;;;;6.62;100.00;101499.53;5982829;29;20060;-86
2022/04/27 06:43:56;;;;;;;12.20;7.93;;;;;;;6.67;100.00;101492.44;6011783;29;20053;-85
2022/04/27 06:47:17;;;;;;;14.30;8.88;;;;;;;6.78;100.00;101504.81;6009779;29;20065;-85
2022/04/27 06:50:38;;;;;;;11.90;8.30;;;;;;;6.78;100.00;101509.09;6010071;29;20065;-86
2022/04/27 06:53:58;;;;;;;;;;;;;;;6.91;100.00;101505.06;6012817;29;20061;-86
2022/04/27 06:57:19;;;;;;;10.98;7.90;;;;;;;7.01;100.00;101511.41;6001022;29;20014;-86
2022/04/27 07:00:37;;;;;;;11.82;8.32;;;;;;;6.99;100.00;101510.66;6010028;29;20037;-86
2022/04/27 07:03:43;;;;;;;21.02;9.27;;;;;;;7.05;100.00;101509.53;6009943;29;20065;-86
2022/04/27 07:06:46;;;;;;;16.05;8.20;;;;;;;7.11;100.00;101515.22;6001897;29;20057;-86
2022/04/27 07:09:47;;;;;;;14.95;8.75;;;;;;;7.27;100.00;101517.03;5989429;29;20049;-86
2022/04/27 07:12:49;;;;;;;17.15;8.27;;;;;;;7.36;100.00;101519.16;6006842;29;20045;-86
2022/04/27 07:15:51;;;;;;;19.13;9.10;;;;;;;7.63;100.00;101527.25;6015168;29;20132;-86
2022/04/27 07:18:55;;;;;;;15.80;8.80;;;;;;;7.63;100.00;101524.69;6009016;29;20089;-85
2022/04/27 07:21:57;;;;;;;12.88;8.52;;;;;;;7.64;100.00;101534.06;6000181;29;20102;-85
2022/04/27 07:24:58;;;;;;;13.88;8.90;;;;;;;7.64;100.00;101536.66;5995469;29;20103;-87
2022/04/27 07:28:00;;;;;;;18.20;8.70;;;;;;;7.68;100.00;101538.16;6015508;29;20085;-84
2022/04/27 07:31:05;;;;;;;17.58;8.60;;;;;;;7.62;100.00;101541.03;6011213;29;20045;-86
2022/04/27 07:34:07;;;;;;;13.63;8.45;;;;;;;7.78;100.00;101548.84;5995554;29;20471;-86
2022/04/27 07:37:10;;;;;;;17.17;8.70;;;;;;;7.78;100.00;101541.13;6011811;29;20056;-85
2022/04/27 07:40:13;;;;;;;17.50;9.88;;;;;;;7.90;100.00;101543.06;6003117;29;20124;-85
2022/04/27 07:43:15;;;;;;;13.50;9.20;;;;;;;7.98;100.00;101543.50;6012667;29;20061;-86
2022/04/27 07:46:17;;;;;;;13.32;9.27;;;;;;;7.96;100.00;101540.16;6014140;29;20045;-86
2022/04/27 07:49:20;;;;;;;16.42;8.98;;;;;;;8.04;100.00;101544.09;5994957;29;20080;-85
2022/04/27 07:52:21;;;;;;;21.45;8.93;;;;;;;7.99;100.00;101544.31;6002406;29;20046;-85
2022/04/27 07:55:24;;;;;;;16.83;9.23;;;;;;;8.11;100.00;101548.03;6014746;29;20038;-85
2022/04/27 07:58:26;;;;;;;15.38;9.15;;;;;;;8.12;100.00;101552.25;5994200;29;20064;-85
2022/04/27 08:01:28;;;;;;;15.18;8.73;;;;;;;8.18;100.00;101555.34;6010120;29;20046;-82
2022/04/27 08:04:30;;;;;;;16.50;9.77;;;;;;;8.37;100.00;101555.22;6007546;29;20053;-85
2022/04/27 08:07:48;;;;;;;16.00;9.00;;;;;;;8.41;100.00;101555.91;6017897;29;20046;-85
2022/04/27 08:10:50;;;;;;;14.07;8.88;;;;;;;8.64;100.00;101557.25;6003465;29;20571;-86
2022/04/27 08:13:51;;;;;;;17.95;9.20;;;;;;;8.75;100.00;101564.44;6003792;29;20411;-86
2022/04/27 08:16:53;;;;;;;15.38;8.93;;;;;;;8.76;100.00;101555.75;6004461;29;20093;-85
2022/04/27 08:21:13;;;;;;;17.77;9.30;;;;;;;8.89;100.00;101564.47;6004327;29;20128;-85
2022/04/27 08:23:17;;;;;;;14.63;9.20;;;;;;;8.97;100.00;101564.91;5994240;29;20049;-86
2022/04/27 08:26:19;;;;;;;14.55;8.52;;;;;;;9.09;100.00;101568.53;6003102;29;20125;-85
2022/04/27 08:29:22;;;;;;;16.05;9.23;;;;;;;9.22;100.00;101574.69;6006743;29;20504;-85
2022/04/27 08:32:23;;;;;;;12.50;8.70;;;;;;;9.25;100.00;101571.94;5997804;29;20598;-85
2022/04/27 08:35:26;;;;;;;16.63;8.95;;;;;;;9.42;100.00;101575.31;6011898;29;20436;-85
2022/04/27 08:38:29;;;;;;;17.63;9.77;;;;;;;9.50;100.00;101580.88;6001857;29;20563;-85
2022/04/27 08:41:30;;;;;;;15.75;8.65;;;;;;;9.53;100.00;101566.94;6003839;29;20034;-86
2022/04/27 08:44:32;;;;;;;10.43;8.30;;;;;;;9.71;100.00;101576.22;5988218;29;20041;-86
2022/04/27 08:47:35;;;;;;;13.88;8.27;;;;;;;9.72;100.00;101580.47;6005147;29;20033;-86
2022/04/27 08:50:37;;;;;;;16.40;9.60;;;;;;;9.84;100.00;101579.75;6003623;29;20056;-85
2022/04/27 08:53:41;;;;;;;18.83;9.30;;;;;;;9.83;100.00;101580.66;6008142;29;20077;-85
2022/04/27 08:56:43;;;;;;;12.40;8.52;;;;;;;9.93;100.00;101584.38;6001592;29;20041;-85
2022/04/27 08:59:46;;;;;;;16.50;9.32;;;;;;;10.05;100.00;101587.16;6011631;29;20052;-85
2022/04/27 09:02:52;;;;;;;13.07;8.48;;;;;;;10.08;100.00;101587.78;6003997;29;20068;-84
2022/04/27 09:06:00;;;;;;;14.05;8.30;;;;;;;10.16;100.00;101587.34;6011095;29;20053;-85
2022/04/27 09:09:02;;;;;;;13.35;8.27;;;;;;;10.26;100.00;101593.63;6008656;29;20049;-84
2022/04/27 09:12:13;;;;;;;12.80;9.10;;;;;;;10.42;100.00;101597.91;6007727;29;20049;-84
2022/04/27 09:15:18;;;;;;;12.75;7.93;;;;;;;10.44;100.00;101594.31;5992086;29;20049;-85
2022/04/27 09:22:04;;;;;;;14.40;8.32;;;;;;;10.63;100.00;101595.75;5994585;29;20056;-85
2022/04/27 09:25:06;;;;;;;14.18;8.00;;;;;;;10.76;100.00;101596.66;5993125;29;20054;-84
2022/04/27 09:28:09;;;;;;;10.52;7.50;;;;;;;10.85;100.00;101593.47;5975758;29;20057;-85
2022/04/27 09:31:28;;;;;;;14.18;8.02;;;;;;;10.87;100.00;101599.41;5984501;29;20057;-84
2022/04/27 09:34:43;;;;;;;13.82;6.78;;;;;;;11.08;97.81;101598.97;5990923;29;20046;-85
2022/04/27 09:37:45;;;;;;;10.85;7.13;;;;;;;11.08;95.98;101589.44;5976012;29;20649;-85
2022/04/27 09:40:56;;;;;;;11.88;7.50;;;;;;;11.14;97.26;101594.22;5991367;29;20553;-85
2022/04/27 09:43:58;;;;;;;12.75;7.15;;;;;;;11.37;95.23;101604.88;5991705;29;20061;-85
2022/04/27 09:47:03;;;;;;;13.30;7.85;;;;;;;11.33;95.93;101596.47;5972140;29;20084;-85
2022/04/27 09:50:05;;;;;;;14.48;6.70;;;;;;;11.43;97.79;101592.34;5989844;29;20094;-85
2022/04/27 09:53:14;;;;;;;12.23;6.80;;;;;;;11.50;94.98;101595.38;5989533;29;20133;-86
2022/04/27 09:56:17;;;;;;;9.40;6.50;;;;;;;11.57;93.90;101593.19;5991494;29;20054;-85
2022/04/27 09:59:20;;;;;;;12.52;6.82;;;;;;;11.71;93.71;101600.88;6000640;29;20053;-85
2022/04/27 10:02:27;;;;;;;13.45;6.70;;;;;;;11.69;89.93;101592.38;6004234;29;20083;-86
2022/04/27 10:05:30;;;;;;;10.07;6.32;;;;;;;11.82;91.08;101582.81;6021756;29;20735;-84
2022/04/27 10:08:35;;;;;;;8.82;6.13;;;;;;;11.81;89.18;101588.16;6011293;29;20045;-85
2022/04/27 10:11:37;;;;;;;11.02;6.15;;;;;;;11.82;90.14;101588.03;6004477;29;20364;-86
2022/04/27 10:14:39;;;;;;;10.77;5.95;;;;;;;12.03;89.71;101585.78;5999480;29;20152;-85
2022/04/27 10:17:41;;;;;;;10.57;6.45;;;;;;;12.13;90.08;101591.19;6007184;29;20054;-85
2022/04/27 10:20:44;;;;;;;11.88;6.45;;;;;;;12.24;89.80;101591.25;6008080;29;20398;-86
2022/04/27 10:23:46;;;;;;;9.25;6.18;;;;;;;12.42;86.98;101584.00;5996728;29;20519;-85
2022/04/27 10:26:48;;;;;;;9.50;5.93;;;;;;;12.48;84.56;101585.31;6003357;29;20552;-85
2022/04/27 10:29:50;;;;;;;8.98;6.00;;;;;;;12.47;85.85;101578.44;5995693;29;20060;-86
2022/04/27 10:32:52;;;;;;;8.82;5.78;;;;;;;12.61;83.07;101591.28;6015019;29;20041;-85
2022/04/27 10:35:53;;;;;;;9.10;5.60;;;;;;;12.60;83.79;101583.63;6003064;29;20045;-86
2022/04/27 10:39:26;;;;;;;10.15;6.00;;;;;;;12.73;83.64;101579.22;6015923;29;20037;-86
2022/04/27 10:42:28;;;;;;;8.50;6.30;;;;;;;12.92;82.81;101591.72;5992032;29;20050;-86
2022/04/27 10:45:30;;;;;;;9.30;5.97;;;;;;;13.04;80.50;101590.84;6008862;29;20053;-87
2022/04/27 10:48:48;;;;;;;10.05;6.38;;;;;;;13.10;78.94;101590.41;6008374;29;20052;-87
2022/04/27 10:52:10;;;;;;;8.88;6.00;;;;;;;13.04;80.41;101593.44;5997550;29;20580;-87
2022/04/27 10:55:41;;;;;;;12.65;6.72;;;;;;;13.19;80.47;101590.66;6009138;29;20053;-86
2022/04/27 10:58:43;;;;;;;;;;;;;;;13.26;78.52;101590.09;6008543;29;20112;-86
2022/04/27 11:01:51;;;;;;;10.13;6.55;;;;;;;13.33;78.40;101595.72;6009737;29;20007;-87
2022/04/27 11:04:53;;;;;;;11.48;7.18;;;;;;;13.34;77.96;101594.75;6016402;29;20042;-88
2022/04/27 11:08:21;;;;;;;12.38;6.75;;;;;;;13.28;79.00;101590.84;6001328;29;20076;-86
2022/04/27 11:11:26;;;;;;;11.90;7.07;;;;;;;13.35;76.67;101586.84;5999770;29;20340;-86
2022/04/27 11:14:31;;;;;;;11.95;6.72;;;;;;;13.61;76.82;101584.09;6007272;29;20042;-86
2022/04/27 11:17:34;;;;;;;11.77;7.32;;;;;;;13.80;71.39;101583.53;6006288;29;20125;-87
2022/04/27 11:20:38;;;;;;;9.52;7.07;;;;;;;13.79;68.40;101582.72;6010902;29;20049;-86
2022/04/27 11:23:40;;;;;;;10.55;6.45;;;;;;;13.79;71.69;101587.09;6010148;29;20102;-87
2022/04/27 11:26:42;;;;;;;11.88;6.30;;;;;;;13.92;72.85;101584.38;5998215;29;20045;-86
2022/04/27 11:29:46;;;;;;;9.40;7.43;;;;;;;13.84;70.60;101581.53;6015720;29;20120;-86
2022/04/27 11:32:49;;;;;;;9.20;6.65;;;;;;;13.97;69.10;101587.47;5992241;29;20045;-86
2022/04/27 11:35:51;;;;;;;8.43;6.28;;;;;;;14.03;68.04;101575.75;6012109;29;20584;-87
2022/04/27 11:38:54;;;;;;;10.88;6.30;;;;;;;14.13;66.52;101574.91;6007994;29;20929;-87
2022/04/27 11:41:58;;;;;;;9.02;5.97;;;;;;;14.18;65.45;101574.56;6011254;29;20496;-87
2022/04/27 11:45:01;;;;;;;8.82;5.60;;;;;;;14.13;63.87;101579.31;6007076;29;20524;-86
2022/04/27 11:48:07;;;;;;;13.88;6.05;;;;;;;14.10;63.54;101576.94;5996355;29;20049;-88
2022/04/27 11:51:09;;;;;;;11.27;6.28;;;;;;;14.31;60.34;101570.06;6008691;29;20038;-86
2022/04/27 11:54:26;;;;;;;8.00;5.70;;;;;;;14.43;59.55;101570.88;6012455;29;20160;-87
2022/04/27 11:57:33;;;;;;;11.98;6.55;;;;;;;14.57;60.31;101575.03;6013576;29;20420;-88
2022/04/27 12:00:35;;;;;;;9.13;5.72;;;;;;;14.64;58.79;101578.81;5984028;29;20048;-88
2022/04/27 12:03:43;;;;;;;7.47;5.13;;;;;;;14.74;56.31;101574.53;6005680;29;20075;-87
2022/04/27 12:06:46;;;;;;;10.50;6.15;;;;;;;14.73;56.99;101567.69;5993215;29;20057;-87
2022/04/27 12:09:59;;;;;;;8.98;5.68;;;;;;;14.89;55.12;101558.63;6014817;29;20065;-87
2022/04/27 12:13:01;;;;;;;7.28;5.30;;;;;;;14.93;55.89;101565.22;5996930;29;20512;-87
2022/04/27 12:16:03;;;;;;;6.18;5.15;;;;;;;15.10;55.09;101556.03;6013043;29;20083;-87
2022/04/27 12:19:06;;;;;;;8.65;5.97;;;;;;;15.23;54.11;101562.75;6010868;29;20045;-89
2022/04/27 12:22:12;;;;;;;9.00;6.13;;;;;;;15.28;54.97;101554.53;5992669;29;20241;-88
2022/04/27 12:25:14;;;;;;;9.13;5.75;;;;;;;15.44;54.67;101559.31;6010360;29;20045;-88
2022/04/27 12:28:18;;;;;;;9.07;6.13;;;;;;;15.56;58.87;101549.63;6013073;29;20057;-88
2022/04/27 12:31:25;;;;;;;11.27;6.63;;;;;;;15.93;56.70;101547.38;6013728;29;20798;-89
2022/04/27 12:37:49;;;;;;;8.85;6.43;;;;;;;16.12;53.03;101550.06;5995739;29;21102;-86
2022/04/27 12:40:51;;;;;;;7.38;5.90;;;;;;;16.29;57.82;101543.38;5995874;29;20064;-87
2022/04/27 12:43:54;;;;;;;10.80;6.97;;;;;;;16.34;55.32;101546.41;6004434;29;20499;-87
2022/04/27 12:47:16;;;;;;;9.60;6.75;;;;;;;16.60;53.54;101547.72;6008541;29;20065;-89
2022/04/27 12:50:19;;;;;;;9.13;6.43;;;;;;;16.64;55.79;101562.16;6007626;29;20042;-88
2022/04/27 12:53:21;;;;;;;9.98;6.97;;;;;;;16.62;55.99;101544.00;6011825;29;20054;-88
2022/04/27 12:56:31;;;;;;;9.38;7.00;;;;;;;16.44;54.59;101548.22;6010090;29;20041;-86
2022/04/27 12:59:52;;;;;;;8.10;6.93;;;;;;;16.56;55.82;101534.06;6012203;29;20133;-87
2022/04/27 13:02:55;;;;;;;8.07;7.10;;;;;;;16.78;53.82;101540.88;6011501;29;20060;-88
2022/04/27 13:05:57;;;;;;;9.82;6.63;;;;;;;16.88;53.25;101543.50;6013045;29;20045;-87
2022/04/27 13:12:21;;;;;;;8.93;6.28;;;;;;;17.03;51.79;101539.50;6013528;29;20061;-88
2022/04/27 13:15:23;;;;;;;10.52;7.10;;;;;;;16.88;50.33;101526.00;6011368;29;20041;-87
2022/04/27 13:18:25;;;;;;;9.50;7.25;;;;;;;16.96;52.55;101533.16;6018173;29;20045;-87
2022/04/27 13:21:28;;;;;;;8.73;6.57;;;;;;;16.97;51.39;101535.66;6011643;29;20073;-87
2022/04/27 13:24:30;;;;;;;12.98;7.30;;;;;;;17.08;50.67;101526.84;5990738;29;20240;-87
2022/04/27 13:27:52;;;;;;;12.82;6.70;;;;;;;17.15;50.09;101520.06;6008178;29;20088;-88
2022/04/27 13:30:54;;;;;;;8.13;6.10;;;;;;;17.42;51.50;101527.19;5993893;29;20050;-86
2022/04/27 13:33:56;;;;;;;9.27;6.95;;;;;;;17.26;50.08;101529.56;6010813;29;20046;-87
2022/04/27 13:36:58;;;;;;;9.90;8.15;;;;;;;17.06;50.27;101546.25;6010079;29;20049;-86
2022/04/27 13:40:00;;;;;;;9.07;7.88;;;;;;;16.93;50.99;101531.66;6007443;29;20693;-87
2022/04/27 13:43:03;;;;;;;13.35;8.75;;;;;;;16.99;50.57;101530.28;6004528;29;20057;-87
2022/04/27 13:46:07;;;;;;;10.40;8.45;;;;;;;17.13;49.95;101526.41;5985143;29;20054;-87
2022/04/27 13:49:09;;;;;;;10.63;8.23;;;;;;;17.33;49.06;101525.41;6003358;29;20523;-88
2022/04/27 13:52:11;;;;;;;11.70;7.72;;;;;;;17.57;48.64;101524.13;5996870;29;20066;-88
2022/04/27 13:55:13;;;;;;;9.13;7.85;;;;;;;17.61;49.54;101520.25;6012559;29;20046;-87
2022/04/27 13:58:15;;;;;;;11.15;8.98;;;;;;;17.71;48.70;101515.78;5985840;29;20401;-88
2022/04/27 14:01:41;;;;;;;10.95;8.27;;;;;;;17.74;48.99;101517.31;6003435;29;20060;-88
2022/04/27 14:04:43;;;;;;;10.60;8.05;;;;;;;17.73;47.27;101521.72;6013241;29;20113;-89
2022/04/27 14:07:45;;;;;;;12.00;7.60;;;;;;;17.78;50.45;101514.25;6003474;29;20057;-88
2022/04/27 14:10:48;;;;;;;12.63;8.23;;;;;;;17.89;46.22;101523.78;5998713;29;20057;-87
2022/04/27 14:13:50;;;;;;;12.20;8.02;;;;;;;18.00;45.22;101514.91;6006290;29;20126;-87
2022/04/27 14:20:12;;;;;;;10.13;8.15;;;;;;;18.01;48.58;101512.13;6003778;29;20201;-87
2022/04/27 14:23:19;;;;;;;10.15;6.90;;;;;;;18.31;48.25;101499.69;6007166;29;20042;-87
2022/04/27 14:26:21;;;;;;;11.15;7.45;;;;;;;18.70;47.07;101504.66;6005857;29;20594;-86
2022/04/27 14:29:23;;;;;;;8.65;7.35;;;;;;;18.73;44.37;101507.81;6000452;29;20054;-86
2022/04/27 14:32:25;;;;;;;9.13;7.13;;;;;;;18.75;46.35;101507.63;6005761;29;20042;-85
2022/04/27 14:35:28;;;;;;;9.80;7.50;;;;;;;18.89;46.23;101509.75;6015152;29;20049;-87
2022/04/27 14:38:32;;;;;;;9.73;6.97;;;;;;;18.88;44.77;101510.75;6005744;29;20052;-89
2022/04/27 14:41:35;;;;;;;9.95;6.47;;;;;;;18.80;46.04;101491.47;6006876;29;20045;-88
2022/04/27 14:44:37;;;;;;;8.85;7.00;;;;;;;18.80;45.98;101504.59;6005200;29;20049;-89
2022/04/27 14:47:39;;;;;;;10.55;7.40;;;;;;;18.83;44.45;101502.53;5995864;29;20488;-89